createdAt,value
2022-12-08T00:00:28.346Z,33.30
2022-12-08T00:00:58.435Z,33.27
2022-12-08T00:01:28.525Z,33.26
2022-12-08T00:01:58.844Z,33.23
2022-12-08T00:02:28.808Z,33.23
2022-12-08T00:02:58.886Z,33.26
2022-12-08T00:03:28.862Z,33.26
2022-12-08T00:03:58.763Z,33.18
2022-12-08T00:04:28.849Z,33.12
2022-12-08T00:04:58.925Z,33.13
2022-12-08T00:05:28.998Z,33.15
2022-12-08T00:05:59.085Z,33.18
2022-12-08T00:06:29.170Z,33.24
2022-12-08T00:06:59.251Z,33.23
2022-12-08T00:07:29.330Z,33.15
2022-12-08T00:07:59.457Z,33.13
2022-12-08T00:08:29.527Z,33.20
2022-12-08T00:08:59.634Z,33.15
2022-12-08T00:09:34.714Z,33.16
2022-12-08T00:09:59.784Z,33.24
2022-12-08T00:10:58.451Z,33.23
2022-12-08T00:10:59.956Z,33.12
2022-12-08T00:11:30.035Z,33.13
2022-12-08T00:12:00.113Z,33.14
2022-12-08T00:12:30.197Z,33.11
2022-12-08T00:13:00.298Z,33.06
2022-12-08T00:13:30.375Z,33.03
2022-12-08T00:14:00.476Z,33.06
2022-12-08T00:14:30.554Z,33.05
2022-12-08T00:15:01.059Z,32.99
2022-12-08T00:15:30.693Z,32.96
2022-12-08T00:16:00.775Z,32.99
2022-12-08T00:16:30.900Z,32.99
2022-12-08T00:17:00.986Z,33.04
2022-12-08T00:17:30.965Z,32.96
2022-12-08T00:18:01.077Z,32.90
2022-12-08T00:18:31.183Z,32.97
2022-12-08T00:19:01.441Z,32.90
2022-12-08T00:19:31.281Z,32.95
2022-12-08T00:20:01.373Z,32.96
2022-12-08T00:20:31.450Z,32.99
2022-12-08T00:21:01.533Z,33.03
2022-12-08T00:21:31.625Z,33.03
2022-12-08T00:22:01.729Z,33.06
2022-12-08T00:22:31.799Z,33.10
2022-12-08T00:23:01.881Z,33.15
2022-12-08T00:23:31.961Z,33.15
2022-12-08T00:24:02.060Z,33.11
2022-12-08T00:24:32.149Z,33.15
2022-12-08T00:25:02.638Z,33.16
2022-12-08T00:25:32.291Z,33.19
2022-12-08T00:26:02.375Z,33.24
2022-12-08T00:26:32.461Z,33.22
2022-12-08T00:27:02.535Z,33.32
2022-12-08T00:27:32.620Z,33.26
2022-12-08T00:28:02.710Z,33.36
2022-12-08T00:28:32.798Z,33.40
2022-12-08T00:29:02.874Z,33.32
2022-12-08T00:29:32.955Z,33.33
2022-12-08T00:30:03.038Z,33.36
2022-12-08T00:30:33.151Z,33.36
2022-12-08T00:31:03.232Z,33.38
2022-12-08T00:31:33.376Z,33.37
2022-12-08T00:32:03.395Z,33.36
2022-12-08T00:32:33.361Z,33.39
2022-12-08T00:33:03.442Z,33.38
2022-12-08T00:33:33.560Z,33.45
2022-12-08T00:34:03.610Z,33.42
2022-12-08T00:34:33.698Z,33.41
2022-12-08T00:35:04.273Z,33.44
2022-12-08T00:35:36.525Z,33.41
2022-12-08T00:36:03.971Z,33.41
2022-12-08T00:36:34.057Z,33.47
2022-12-08T00:37:04.148Z,33.51
2022-12-08T00:37:34.226Z,33.49
2022-12-08T00:38:04.306Z,33.51
2022-12-08T00:38:34.385Z,33.47
2022-12-08T00:39:04.475Z,33.42
2022-12-08T00:39:34.556Z,33.49
2022-12-08T00:40:04.795Z,33.52
2022-12-08T00:40:34.753Z,33.48
2022-12-08T00:41:04.723Z,33.51
2022-12-08T00:41:34.812Z,33.47
2022-12-08T00:42:04.891Z,33.41
2022-12-08T00:42:34.971Z,33.39
2022-12-08T00:43:05.054Z,33.45
2022-12-08T00:43:35.139Z,33.38
2022-12-08T00:44:05.232Z,33.41
2022-12-08T00:44:35.313Z,33.44
2022-12-08T00:45:05.406Z,33.38
2022-12-08T00:45:35.529Z,33.36
2022-12-08T00:46:05.603Z,33.50
2022-12-08T00:46:35.553Z,33.44
2022-12-08T00:47:05.633Z,33.39
2022-12-08T00:47:35.716Z,33.38
2022-12-08T00:48:05.802Z,33.44
2022-12-08T00:48:35.914Z,33.38
2022-12-08T00:49:06.121Z,33.39
2022-12-08T00:49:36.024Z,33.38
2022-12-08T00:50:06.761Z,33.45
2022-12-08T00:50:36.101Z,33.41
2022-12-08T00:51:06.145Z,33.40
2022-12-08T00:51:36.181Z,33.44
2022-12-08T00:52:06.234Z,33.44
2022-12-08T00:52:36.274Z,33.45
2022-12-08T00:53:06.311Z,33.41
2022-12-08T00:53:36.349Z,33.41
2022-12-08T00:54:06.388Z,33.48
2022-12-08T00:54:36.433Z,33.44
2022-12-08T00:55:06.480Z,33.46
2022-12-08T00:55:36.519Z,33.48
2022-12-08T00:56:06.551Z,33.45
2022-12-08T00:56:36.588Z,33.48
2022-12-08T00:57:06.635Z,33.49
2022-12-08T00:57:36.675Z,33.44
2022-12-08T00:58:06.713Z,33.48
2022-12-08T00:58:36.756Z,33.39
2022-12-08T00:59:06.818Z,33.45
2022-12-08T00:59:36.868Z,33.40
2022-12-08T01:00:07.201Z,33.45
2022-12-08T01:00:36.951Z,33.45
2022-12-08T01:01:07.136Z,33.44
2022-12-08T01:01:37.225Z,33.45
2022-12-08T01:02:07.198Z,33.44
2022-12-08T01:02:37.285Z,33.42
2022-12-08T01:03:07.428Z,33.41
2022-12-08T01:03:37.488Z,33.39
2022-12-08T01:04:07.461Z,33.47
2022-12-08T01:04:37.508Z,33.39
2022-12-08T01:05:07.589Z,33.36
2022-12-08T01:05:37.691Z,33.40
2022-12-08T01:06:07.778Z,33.36
2022-12-08T01:06:37.857Z,33.41
2022-12-08T01:07:07.955Z,33.38
2022-12-08T01:07:38.096Z,33.39
2022-12-08T01:08:08.143Z,33.37
2022-12-08T01:08:38.113Z,33.41
2022-12-08T01:09:08.185Z,33.36
2022-12-08T01:09:38.270Z,33.36
2022-12-08T01:10:08.358Z,33.38
2022-12-08T01:10:38.443Z,33.35
2022-12-08T01:11:08.531Z,33.30
2022-12-08T01:11:38.617Z,33.35
2022-12-08T01:12:08.694Z,33.32
2022-12-08T01:12:38.788Z,33.43
2022-12-08T01:13:08.867Z,33.39
2022-12-08T01:13:38.970Z,33.39
2022-12-08T01:14:09.060Z,33.39
2022-12-08T01:14:39.139Z,33.42
2022-12-08T01:15:09.215Z,33.36
2022-12-08T01:15:39.306Z,33.36
2022-12-08T01:16:09.447Z,33.33
2022-12-08T01:16:39.476Z,33.38
2022-12-08T01:17:09.588Z,33.30
2022-12-08T01:17:39.458Z,33.38
2022-12-08T01:18:09.545Z,33.32
2022-12-08T01:18:39.639Z,33.27
2022-12-08T01:19:09.744Z,33.32
2022-12-08T01:19:39.802Z,33.30
2022-12-08T01:20:09.883Z,33.30
2022-12-08T01:20:39.977Z,33.33
2022-12-08T01:21:10.059Z,33.32
2022-12-08T01:21:40.154Z,33.30
2022-12-08T01:22:10.225Z,33.32
2022-12-08T01:22:40.316Z,33.30
2022-12-08T01:23:10.387Z,33.24
2022-12-08T01:23:40.470Z,33.33
2022-12-08T01:24:10.580Z,33.30
2022-12-08T01:24:40.640Z,33.26
2022-12-08T01:25:10.716Z,33.28
2022-12-08T01:25:40.791Z,33.29
2022-12-08T01:26:10.899Z,33.27
2022-12-08T01:26:40.989Z,33.32
2022-12-08T01:27:11.065Z,33.28
2022-12-08T01:27:41.148Z,33.35
2022-12-08T01:28:11.228Z,33.35
2022-12-08T01:28:41.314Z,33.32
2022-12-08T01:29:11.402Z,33.34
2022-12-08T01:29:41.484Z,33.36
2022-12-08T01:30:11.576Z,33.39
2022-12-08T01:30:41.737Z,33.42
2022-12-08T01:31:11.838Z,33.42
2022-12-08T01:31:41.715Z,33.33
2022-12-08T01:32:11.797Z,33.38
2022-12-08T01:32:41.878Z,33.31
2022-12-08T01:33:11.949Z,33.36
2022-12-08T01:33:42.044Z,33.35
2022-12-08T01:34:12.142Z,33.33
2022-12-08T01:34:42.201Z,33.29
2022-12-08T01:35:12.286Z,33.32
2022-12-08T01:35:42.368Z,33.36
2022-12-08T01:36:12.451Z,33.32
2022-12-08T01:36:42.541Z,33.27
2022-12-08T01:37:12.635Z,33.31
2022-12-08T01:37:42.713Z,33.26
2022-12-08T01:38:12.802Z,33.27
2022-12-08T01:38:42.882Z,33.33
2022-12-08T01:39:12.965Z,33.31
2022-12-08T01:39:43.051Z,33.33
2022-12-08T01:40:13.140Z,33.30
2022-12-08T01:40:43.216Z,33.30
2022-12-08T01:41:13.308Z,33.33
2022-12-08T01:41:43.398Z,33.24
2022-12-08T01:42:13.478Z,33.26
2022-12-08T01:42:43.557Z,33.30
2022-12-08T01:43:13.628Z,33.33
2022-12-08T01:43:43.717Z,33.29
2022-12-08T01:44:13.817Z,33.36
2022-12-08T01:44:43.985Z,33.30
2022-12-08T01:45:13.903Z,33.27
2022-12-08T01:45:44.020Z,33.24
2022-12-08T01:46:14.160Z,33.24
2022-12-08T01:46:44.169Z,33.23
2022-12-08T01:47:14.123Z,33.27
2022-12-08T01:47:44.283Z,33.27
2022-12-08T01:48:14.325Z,33.23
2022-12-08T01:48:44.321Z,33.26
2022-12-08T01:49:14.417Z,33.25
2022-12-08T01:49:44.476Z,33.23
2022-12-08T01:50:14.513Z,33.24
2022-12-08T01:50:44.555Z,33.26
2022-12-08T01:51:14.620Z,33.26
2022-12-08T01:51:44.658Z,33.30
2022-12-08T01:52:14.696Z,33.29
2022-12-08T01:52:44.743Z,33.26
2022-12-08T01:53:14.780Z,33.27
2022-12-08T01:53:44.818Z,33.23
2022-12-08T01:54:14.867Z,33.26
2022-12-08T01:54:44.909Z,33.26
2022-12-08T01:55:14.951Z,33.26
2022-12-08T01:55:44.985Z,33.24
2022-12-08T01:56:15.039Z,33.29
2022-12-08T01:56:45.094Z,33.32
2022-12-08T01:57:15.130Z,33.29
2022-12-08T01:57:45.171Z,33.27
2022-12-08T01:58:15.209Z,33.21
2022-12-08T01:58:45.251Z,33.24
2022-12-08T01:59:15.287Z,33.21
2022-12-08T01:59:45.333Z,33.20
2022-12-08T02:00:15.408Z,33.24
2022-12-08T02:00:45.527Z,33.18
2022-12-08T02:01:15.692Z,33.27
2022-12-08T02:01:45.759Z,33.26
2022-12-08T02:02:15.760Z,33.30
2022-12-08T02:02:45.803Z,33.33
2022-12-08T02:03:15.767Z,33.33
2022-12-08T02:03:45.845Z,33.23
2022-12-08T02:04:15.935Z,33.18
2022-12-08T02:04:46.055Z,33.22
2022-12-08T02:05:16.109Z,33.20
2022-12-08T02:05:46.193Z,33.22
2022-12-08T02:06:16.276Z,33.14
2022-12-08T02:06:46.364Z,33.22
2022-12-08T02:07:16.450Z,33.16
2022-12-08T02:07:46.780Z,33.14
2022-12-08T02:08:16.698Z,33.16
2022-12-08T02:08:46.582Z,33.14
2022-12-08T02:09:16.675Z,33.14
2022-12-08T02:09:46.773Z,33.09
2022-12-08T02:10:16.855Z,33.10
2022-12-08T02:10:46.945Z,33.06
2022-12-08T02:11:17.033Z,33.11
2022-12-08T02:11:47.126Z,33.11
2022-12-08T02:12:17.214Z,33.08
2022-12-08T02:12:47.300Z,33.09
2022-12-08T02:13:17.389Z,33.14
2022-12-08T02:13:47.455Z,33.14
2022-12-08T02:14:17.535Z,33.17
2022-12-08T02:14:47.622Z,33.15
2022-12-08T02:15:17.697Z,33.17
2022-12-08T02:15:47.871Z,33.20
2022-12-08T02:16:17.965Z,33.16
2022-12-08T02:16:47.853Z,33.17
2022-12-08T02:17:17.936Z,33.20
2022-12-08T02:17:48.014Z,33.21
2022-12-08T02:18:18.098Z,33.23
2022-12-08T02:19:07.986Z,33.26
2022-12-08T02:19:33.764Z,33.23
2022-12-08T02:19:48.377Z,33.27
2022-12-08T02:20:18.426Z,33.29
2022-12-08T02:20:48.511Z,33.22
2022-12-08T02:21:18.586Z,33.24
2022-12-08T02:21:48.664Z,33.26
2022-12-08T02:22:18.760Z,33.27
2022-12-08T02:22:48.845Z,33.13
2022-12-08T02:23:18.929Z,33.20
2022-12-08T02:23:49.021Z,33.20
2022-12-08T02:24:19.119Z,33.06
2022-12-08T02:24:49.205Z,33.11
2022-12-08T02:25:19.281Z,33.13
2022-12-08T02:25:49.368Z,33.14
2022-12-08T02:26:19.450Z,33.14
2022-12-08T02:26:49.533Z,33.10
2022-12-08T02:27:19.617Z,33.06
2022-12-08T02:27:49.704Z,33.14
2022-12-08T02:28:19.792Z,33.09
2022-12-08T02:28:49.871Z,33.13
2022-12-08T02:29:19.947Z,33.13
2022-12-08T02:29:50.025Z,33.13
2022-12-08T02:30:20.116Z,33.15
2022-12-08T02:30:50.261Z,33.06
2022-12-08T02:31:20.355Z,33.11
2022-12-08T02:31:50.370Z,33.16
2022-12-08T02:32:20.452Z,33.11
2022-12-08T02:32:50.540Z,33.07
2022-12-08T02:33:20.626Z,33.06
2022-12-08T02:33:50.741Z,33.08
2022-12-08T02:34:20.824Z,33.05
2022-12-08T02:34:50.905Z,33.03
2022-12-08T02:35:21.019Z,33.07
2022-12-08T02:35:51.072Z,33.08
2022-12-08T02:36:21.160Z,33.05
2022-12-08T02:36:51.249Z,33.06
2022-12-08T02:37:21.328Z,33.05
2022-12-08T02:37:51.440Z,33.09
2022-12-08T02:38:21.508Z,33.10
2022-12-08T02:38:51.627Z,33.02
2022-12-08T02:39:21.591Z,33.02
2022-12-08T02:39:51.672Z,32.99
2022-12-08T02:40:21.765Z,33.01
2022-12-08T02:40:51.840Z,32.95
2022-12-08T02:41:21.923Z,32.94
2022-12-08T02:41:52.002Z,32.93
2022-12-08T02:42:22.087Z,32.89
2022-12-08T02:42:52.168Z,32.95
2022-12-08T02:43:22.252Z,32.89
2022-12-08T02:43:52.419Z,32.86
2022-12-08T02:44:22.379Z,32.82
2022-12-08T02:44:52.499Z,32.79
2022-12-08T02:45:22.553Z,32.88
2022-12-08T02:45:52.738Z,32.83
2022-12-08T02:46:22.785Z,32.84
2022-12-08T02:46:52.745Z,32.83
2022-12-08T02:47:22.829Z,32.79
2022-12-08T02:47:52.913Z,32.86
2022-12-08T02:48:22.996Z,32.89
2022-12-08T02:48:53.106Z,32.80
2022-12-08T02:49:23.070Z,32.79
2022-12-08T02:49:53.140Z,32.82
2022-12-08T02:50:23.205Z,32.79
2022-12-08T02:50:53.277Z,32.82
2022-12-08T02:51:23.310Z,32.75
2022-12-08T02:51:53.358Z,32.82
2022-12-08T02:52:23.404Z,32.77
2022-12-08T02:52:53.441Z,32.83
2022-12-08T02:53:23.476Z,32.79
2022-12-08T02:53:53.559Z,32.86
2022-12-08T02:54:23.607Z,32.79
2022-12-08T02:54:53.649Z,32.87
2022-12-08T02:55:23.684Z,32.81
2022-12-08T02:55:53.738Z,32.84
2022-12-08T02:56:23.778Z,32.84
2022-12-08T02:56:53.818Z,32.97
2022-12-08T02:57:23.856Z,32.97
2022-12-08T02:57:53.903Z,33.00
2022-12-08T02:58:23.945Z,32.99
2022-12-08T02:58:53.984Z,32.91
2022-12-08T02:59:24.017Z,32.97
2022-12-08T02:59:54.072Z,32.97
2022-12-08T03:00:24.163Z,33.02
2022-12-08T03:00:54.255Z,33.02
2022-12-08T03:01:24.396Z,32.97
2022-12-08T03:01:54.408Z,32.96
2022-12-08T03:02:24.586Z,33.03
2022-12-08T03:02:54.654Z,33.04
2022-12-08T03:03:24.610Z,33.02
2022-12-08T03:03:54.704Z,33.10
2022-12-08T03:04:24.800Z,33.08
2022-12-08T03:04:54.875Z,33.11
2022-12-08T03:05:24.959Z,33.14
2022-12-08T03:05:55.064Z,33.11
2022-12-08T03:06:25.132Z,33.16
2022-12-08T03:06:55.217Z,33.08
2022-12-08T03:07:25.298Z,33.19
2022-12-08T03:07:55.419Z,33.22
2022-12-08T03:08:25.496Z,33.25
2022-12-08T03:08:55.474Z,33.25
2022-12-08T03:09:25.542Z,33.22
2022-12-08T03:09:55.620Z,33.22
2022-12-08T03:10:25.712Z,33.25
2022-12-08T03:10:55.807Z,33.17
2022-12-08T03:11:25.889Z,33.14
2022-12-08T03:11:55.969Z,33.14
2022-12-08T03:12:26.050Z,33.10
2022-12-08T03:12:56.130Z,33.10
2022-12-08T03:13:26.216Z,33.16
2022-12-08T03:13:56.219Z,33.14
2022-12-08T03:14:26.304Z,33.13
2022-12-08T03:14:56.401Z,33.17
2022-12-08T03:15:26.481Z,33.17
2022-12-08T03:15:56.629Z,33.25
2022-12-08T03:16:26.810Z,33.27
2022-12-08T03:16:56.713Z,33.25
2022-12-08T03:17:26.798Z,33.24
2022-12-08T03:17:56.877Z,33.23
2022-12-08T03:18:26.972Z,33.29
2022-12-08T03:18:57.053Z,33.23
2022-12-08T03:19:27.139Z,33.22
2022-12-08T03:19:57.210Z,33.22
2022-12-08T03:20:27.292Z,33.22
2022-12-08T03:20:57.415Z,33.17
2022-12-08T03:21:27.456Z,33.26
2022-12-08T03:21:57.538Z,33.26
2022-12-08T03:22:27.636Z,33.23
2022-12-08T03:22:57.722Z,33.20
2022-12-08T03:23:27.812Z,33.22
2022-12-08T03:23:57.892Z,33.23
2022-12-08T03:24:27.984Z,33.23
2022-12-08T03:24:58.074Z,33.18
2022-12-08T03:25:28.152Z,33.23
2022-12-08T03:25:58.234Z,33.20
2022-12-08T03:26:28.316Z,33.26
2022-12-08T03:26:58.420Z,33.24
2022-12-08T03:27:28.506Z,33.20
2022-12-08T03:27:58.599Z,33.22
2022-12-08T03:28:28.687Z,33.18
2022-12-08T03:28:58.778Z,33.20
2022-12-08T03:29:28.856Z,33.17
2022-12-08T03:29:58.942Z,33.17
2022-12-08T03:30:29.024Z,33.18
2022-12-08T03:30:59.160Z,33.20
2022-12-08T03:31:29.205Z,33.17
2022-12-08T03:31:59.161Z,33.17
2022-12-08T03:32:29.251Z,33.22
2022-12-08T03:32:59.341Z,33.12
2022-12-08T03:33:29.428Z,33.18
2022-12-08T03:33:59.507Z,33.25
2022-12-08T03:34:29.596Z,33.17
2022-12-08T03:34:59.791Z,33.23
2022-12-08T03:35:29.748Z,33.22
2022-12-08T03:35:59.857Z,33.23
2022-12-08T03:36:29.918Z,33.23
2022-12-08T03:36:59.999Z,33.26
2022-12-08T03:37:30.081Z,33.29
2022-12-08T03:38:00.154Z,33.29
2022-12-08T03:38:30.250Z,33.22
2022-12-08T03:39:00.328Z,33.22
2022-12-08T03:39:30.410Z,33.26
2022-12-08T03:40:00.488Z,33.33
2022-12-08T03:40:30.573Z,33.23
2022-12-08T03:41:00.659Z,33.22
2022-12-08T03:41:30.736Z,33.23
2022-12-08T03:42:00.820Z,33.20
2022-12-08T03:42:30.907Z,33.25
2022-12-08T03:43:01.001Z,33.26
2022-12-08T03:43:31.082Z,33.27
2022-12-08T03:44:01.175Z,33.21
2022-12-08T03:44:31.257Z,33.20
2022-12-08T03:45:01.348Z,33.26
2022-12-08T03:45:31.429Z,33.24
2022-12-08T03:46:01.600Z,33.22
2022-12-08T03:46:31.565Z,33.21
2022-12-08T03:47:01.675Z,33.24
2022-12-08T03:47:31.754Z,33.25
2022-12-08T03:48:01.839Z,33.24
2022-12-08T03:48:31.925Z,33.26
2022-12-08T03:49:02.055Z,33.24
2022-12-08T03:49:32.106Z,33.21
2022-12-08T03:50:02.649Z,33.23
2022-12-08T03:50:32.161Z,33.23
2022-12-08T03:51:02.230Z,33.20
2022-12-08T03:51:32.246Z,33.20
2022-12-08T03:52:02.310Z,33.18
2022-12-08T03:52:32.347Z,33.22
2022-12-08T03:53:02.392Z,33.26
2022-12-08T03:53:32.440Z,33.15
2022-12-08T03:54:02.477Z,33.18
2022-12-08T03:54:32.514Z,33.18
2022-12-08T03:55:02.564Z,33.21
2022-12-08T03:55:32.615Z,33.18
2022-12-08T03:56:02.645Z,33.23
2022-12-08T03:56:32.683Z,33.15
2022-12-08T03:57:02.720Z,33.21
2022-12-08T03:57:32.770Z,33.23
2022-12-08T03:58:02.803Z,33.18
2022-12-08T03:58:37.171Z,33.29
2022-12-08T03:59:02.896Z,33.26
2022-12-08T03:59:32.972Z,33.27
2022-12-08T04:00:03.424Z,33.27
2022-12-08T04:00:33.059Z,33.24
2022-12-08T04:01:03.135Z,33.24
2022-12-08T04:01:33.288Z,33.23
2022-12-08T04:02:03.346Z,33.20
2022-12-08T04:02:33.386Z,33.18
2022-12-08T04:03:03.521Z,33.27
2022-12-08T04:03:33.509Z,33.23
2022-12-08T04:04:03.590Z,33.23
2022-12-08T04:04:33.668Z,33.21
2022-12-08T04:05:03.758Z,33.11
2022-12-08T04:05:33.849Z,33.12
2022-12-08T04:06:03.930Z,33.11
2022-12-08T04:06:34.034Z,33.09
2022-12-08T04:07:04.093Z,33.11
2022-12-08T04:07:34.180Z,33.08
2022-12-08T04:08:04.312Z,33.14
2022-12-08T04:08:34.281Z,33.12
2022-12-08T04:09:04.367Z,33.11
2022-12-08T04:09:34.452Z,33.08
2022-12-08T04:10:04.887Z,33.04
2022-12-08T04:10:34.606Z,33.06
2022-12-08T04:11:04.682Z,33.05
2022-12-08T04:11:34.784Z,33.02
2022-12-08T04:12:04.861Z,33.09
2022-12-08T04:12:34.948Z,33.09
2022-12-08T04:13:05.030Z,33.10
2022-12-08T04:13:35.146Z,33.08
2022-12-08T04:14:05.116Z,33.02
2022-12-08T04:14:35.197Z,33.04
2022-12-08T04:15:05.278Z,32.98
2022-12-08T04:15:35.499Z,32.94
2022-12-08T04:16:05.446Z,32.92
2022-12-08T04:16:35.442Z,32.94
2022-12-08T04:17:05.344Z,32.95
2022-12-08T04:17:35.441Z,32.89
2022-12-08T04:18:05.519Z,32.90
2022-12-08T04:18:35.621Z,32.92
2022-12-08T04:19:05.697Z,32.87
2022-12-08T04:19:35.780Z,32.84
2022-12-08T04:20:06.243Z,32.86
2022-12-08T04:20:35.890Z,32.87
2022-12-08T04:21:05.976Z,32.84
2022-12-08T04:21:36.063Z,32.86
2022-12-08T04:22:06.168Z,32.85
2022-12-08T04:22:36.231Z,32.85
2022-12-08T04:23:06.278Z,32.83
2022-12-08T04:23:36.327Z,32.79
2022-12-08T04:24:06.410Z,32.79
2022-12-08T04:24:36.505Z,32.80
2022-12-08T04:25:06.585Z,32.73
2022-12-08T04:25:36.671Z,32.71
2022-12-08T04:26:06.745Z,32.79
2022-12-08T04:26:36.843Z,32.73
2022-12-08T04:27:06.921Z,32.77
2022-12-08T04:27:37.033Z,32.74
2022-12-08T04:28:07.012Z,32.71
2022-12-08T04:28:37.099Z,32.74
2022-12-08T04:29:07.184Z,32.70
2022-12-08T04:29:37.257Z,32.70
2022-12-08T04:30:07.712Z,32.71
2022-12-08T04:30:37.444Z,32.68
2022-12-08T04:31:07.581Z,32.67
2022-12-08T04:31:37.704Z,32.70
2022-12-08T04:32:07.650Z,32.71
2022-12-08T04:32:40.588Z,32.70
2022-12-08T04:33:07.741Z,32.70
2022-12-08T04:33:37.818Z,32.71
2022-12-08T04:34:07.917Z,32.73
2022-12-08T04:34:38.005Z,32.73
2022-12-08T04:35:08.083Z,32.75
2022-12-08T04:35:38.155Z,32.79
2022-12-08T04:36:08.251Z,32.84
2022-12-08T04:36:38.332Z,32.83
2022-12-08T04:37:08.440Z,32.81
2022-12-08T04:37:38.494Z,32.84
2022-12-08T04:38:08.598Z,32.90
2022-12-08T04:38:38.683Z,32.94
2022-12-08T04:39:08.763Z,32.96
2022-12-08T04:39:38.844Z,32.95
2022-12-08T04:40:08.927Z,32.98
2022-12-08T04:40:39.013Z,33.01
2022-12-08T04:41:09.091Z,33.05
2022-12-08T04:41:39.172Z,33.11
2022-12-08T04:42:09.265Z,33.11
2022-12-08T04:42:39.349Z,33.14
2022-12-08T04:43:09.439Z,33.22
2022-12-08T04:43:39.512Z,33.24
2022-12-08T04:44:09.604Z,33.27
2022-12-08T04:44:39.695Z,33.24
2022-12-08T04:45:09.769Z,33.26
2022-12-08T04:45:39.855Z,33.32
2022-12-08T04:46:10.007Z,33.38
2022-12-08T04:46:43.351Z,33.42
2022-12-08T04:47:10.147Z,33.38
2022-12-08T04:47:40.122Z,33.45
2022-12-08T04:48:10.214Z,33.44
2022-12-08T04:48:40.305Z,33.45
2022-12-08T04:49:10.393Z,33.55
2022-12-08T04:49:40.466Z,33.46
2022-12-08T04:50:10.503Z,33.48
2022-12-08T04:50:40.546Z,33.56
2022-12-08T04:51:10.589Z,33.53
2022-12-08T04:51:40.621Z,33.60
2022-12-08T04:52:10.685Z,33.55
2022-12-08T04:52:40.704Z,33.64
2022-12-08T04:53:10.747Z,33.61
2022-12-08T04:53:46.135Z,33.62
2022-12-08T04:54:10.829Z,33.65
2022-12-08T04:54:40.881Z,33.70
2022-12-08T04:55:10.918Z,33.65
2022-12-08T04:55:40.963Z,33.72
2022-12-08T04:56:11.000Z,33.80
2022-12-08T04:56:41.034Z,33.75
2022-12-08T04:57:11.076Z,33.74
2022-12-08T04:57:41.119Z,33.83
2022-12-08T04:58:11.162Z,33.86
2022-12-08T04:58:41.199Z,33.82
2022-12-08T04:59:11.242Z,33.83
2022-12-08T04:59:41.298Z,33.84
2022-12-08T05:00:11.378Z,33.83
2022-12-08T05:00:41.453Z,33.83
2022-12-08T05:01:11.583Z,33.84
2022-12-08T05:01:41.733Z,33.86
2022-12-08T05:02:11.732Z,33.82
2022-12-08T05:02:41.715Z,33.80
2022-12-08T05:03:11.703Z,33.83
2022-12-08T05:03:41.798Z,33.86
2022-12-08T05:04:11.886Z,33.83
2022-12-08T05:04:41.979Z,33.83
2022-12-08T05:05:12.062Z,33.77
2022-12-08T05:05:42.167Z,33.82
2022-12-08T05:06:12.244Z,33.78
2022-12-08T05:06:42.334Z,33.80
2022-12-08T05:07:12.420Z,33.80
2022-12-08T05:07:42.604Z,33.81
2022-12-08T05:08:12.668Z,33.74
2022-12-08T05:08:42.657Z,33.74
2022-12-08T05:09:12.739Z,33.79
2022-12-08T05:09:42.824Z,33.71
2022-12-08T05:10:12.911Z,33.73
2022-12-08T05:10:42.987Z,33.67
2022-12-08T05:11:13.071Z,33.75
2022-12-08T05:11:48.645Z,33.69
2022-12-08T05:12:13.233Z,33.68
2022-12-08T05:12:43.307Z,33.70
2022-12-08T05:13:13.397Z,33.67
2022-12-08T05:13:43.489Z,33.66
2022-12-08T05:14:13.581Z,33.65
2022-12-08T05:14:43.658Z,33.58
2022-12-08T05:15:13.737Z,33.63
2022-12-08T05:15:43.824Z,33.65
2022-12-08T05:16:13.962Z,33.62
2022-12-08T05:16:43.972Z,33.58
2022-12-08T05:17:13.954Z,33.62
2022-12-08T05:17:44.045Z,33.66
2022-12-08T05:18:14.131Z,33.62
2022-12-08T05:18:44.223Z,33.60
2022-12-08T05:19:14.306Z,33.63
2022-12-08T05:19:44.390Z,33.62
2022-12-08T05:20:14.484Z,33.59
2022-12-08T05:20:44.568Z,33.57
2022-12-08T05:21:14.652Z,33.56
2022-12-08T05:21:44.728Z,33.56
2022-12-08T05:22:14.813Z,33.56
2022-12-08T05:22:44.918Z,33.56
2022-12-08T05:23:14.989Z,33.54
2022-12-08T05:23:45.072Z,33.48
2022-12-08T05:24:15.158Z,33.54
2022-12-08T05:24:47.586Z,33.58
2022-12-08T05:25:15.254Z,33.41
2022-12-08T05:25:45.338Z,33.29
2022-12-08T05:26:15.433Z,33.31
2022-12-08T05:26:45.524Z,33.19
2022-12-08T05:27:15.601Z,33.09
2022-12-08T05:27:45.691Z,32.98
2022-12-08T05:28:40.147Z,33.04
2022-12-08T05:28:45.866Z,32.93
2022-12-08T05:29:15.925Z,33.08
2022-12-08T05:29:46.017Z,33.14
2022-12-08T05:30:16.106Z,33.11
2022-12-08T05:30:46.190Z,33.14
2022-12-08T05:31:16.337Z,33.34
2022-12-08T05:31:46.342Z,33.43
2022-12-08T05:32:16.343Z,33.45
2022-12-08T05:32:46.422Z,33.53
2022-12-08T05:33:16.507Z,33.59
2022-12-08T05:33:46.609Z,33.54
2022-12-08T05:34:16.673Z,33.53
2022-12-08T05:34:46.761Z,33.68
2022-12-08T05:35:16.838Z,33.65
2022-12-08T05:35:46.926Z,33.74
2022-12-08T05:36:17.014Z,33.82
2022-12-08T05:36:47.091Z,33.89
2022-12-08T05:37:17.171Z,33.87
2022-12-08T05:37:47.258Z,33.89
2022-12-08T05:38:17.383Z,33.92
2022-12-08T05:38:47.446Z,33.93
2022-12-08T05:39:17.535Z,33.98
2022-12-08T05:39:47.609Z,34.00
2022-12-08T05:40:17.706Z,33.94
2022-12-08T05:40:47.789Z,33.89
2022-12-08T05:41:17.875Z,34.00
2022-12-08T05:41:47.952Z,34.02
2022-12-08T05:42:23.186Z,33.99
2022-12-08T05:42:48.103Z,34.01
2022-12-08T05:43:18.187Z,33.96
2022-12-08T05:43:48.273Z,34.00
2022-12-08T05:44:18.351Z,34.02
2022-12-08T05:44:48.450Z,33.91
2022-12-08T05:45:18.537Z,33.94
2022-12-08T05:45:48.715Z,33.94
2022-12-08T05:46:18.734Z,33.91
2022-12-08T05:46:48.717Z,33.91
2022-12-08T05:47:18.805Z,33.84
2022-12-08T05:47:48.895Z,33.93
2022-12-08T05:48:18.971Z,33.98
2022-12-08T05:48:49.047Z,33.92
2022-12-08T05:49:19.143Z,33.86
2022-12-08T05:49:49.202Z,33.84
2022-12-08T05:50:19.241Z,33.83
2022-12-08T05:50:49.282Z,33.89
2022-12-08T05:51:19.328Z,33.76
2022-12-08T05:51:49.372Z,33.90
2022-12-08T05:52:19.406Z,33.90
2022-12-08T05:52:49.443Z,33.95
2022-12-08T05:53:19.546Z,33.97
2022-12-08T05:53:49.735Z,33.97
2022-12-08T05:54:19.630Z,33.94
2022-12-08T05:54:49.664Z,33.98
2022-12-08T05:55:19.704Z,33.95
2022-12-08T05:55:49.749Z,33.97
2022-12-08T05:56:19.801Z,33.92
2022-12-08T05:56:49.832Z,33.97
2022-12-08T05:57:19.872Z,33.93
2022-12-08T05:57:49.908Z,33.91
2022-12-08T05:58:19.979Z,34.09
2022-12-08T05:58:50.016Z,34.05
2022-12-08T05:59:20.050Z,33.98
2022-12-08T05:59:50.107Z,33.97
2022-12-08T06:00:20.188Z,33.92
2022-12-08T06:00:50.297Z,33.92
2022-12-08T06:01:20.364Z,34.03
2022-12-08T06:01:50.479Z,33.98
2022-12-08T06:02:20.573Z,34.03
2022-12-08T06:02:50.718Z,34.02
2022-12-08T06:03:20.727Z,34.03
2022-12-08T06:03:50.640Z,34.10
2022-12-08T06:04:20.722Z,34.01
2022-12-08T06:04:50.801Z,34.06
2022-12-08T06:05:20.888Z,34.12
2022-12-08T06:05:50.970Z,34.11
2022-12-08T06:06:21.050Z,34.18
2022-12-08T06:06:51.135Z,34.07
2022-12-08T06:07:21.221Z,34.12
2022-12-08T06:07:51.341Z,34.14
2022-12-08T06:08:21.389Z,34.07
2022-12-08T06:08:51.395Z,34.16
2022-12-08T06:09:21.481Z,34.07
2022-12-08T06:09:51.570Z,34.15
2022-12-08T06:10:21.644Z,34.26
2022-12-08T06:10:51.725Z,34.15
2022-12-08T06:11:21.815Z,34.18
2022-12-08T06:11:51.898Z,34.20
2022-12-08T06:12:21.976Z,34.19
2022-12-08T06:12:52.055Z,34.15
2022-12-08T06:13:22.136Z,34.32
2022-12-08T06:13:52.229Z,34.23
2022-12-08T06:14:22.317Z,34.26
2022-12-08T06:14:52.396Z,34.43
2022-12-08T06:15:22.483Z,34.41
2022-12-08T06:15:52.561Z,34.40
2022-12-08T06:16:22.709Z,34.43
2022-12-08T06:16:52.770Z,34.45
2022-12-08T06:17:22.672Z,34.47
2022-12-08T06:17:52.763Z,34.55
2022-12-08T06:18:22.848Z,34.56
2022-12-08T06:18:52.934Z,34.47
2022-12-08T06:19:23.025Z,34.43
2022-12-08T06:19:53.103Z,34.43
2022-12-08T06:20:23.184Z,34.36
2022-12-08T06:20:53.276Z,34.36
2022-12-08T06:21:23.357Z,34.34
2022-12-08T06:21:53.440Z,34.36
2022-12-08T06:22:23.519Z,34.35
2022-12-08T06:22:53.602Z,34.31
2022-12-08T06:23:23.700Z,34.38
2022-12-08T06:23:53.820Z,34.56
2022-12-08T06:24:23.887Z,35.09
2022-12-08T06:24:53.963Z,34.85
2022-12-08T06:25:24.090Z,34.79
2022-12-08T06:25:54.162Z,34.54
2022-12-08T06:26:24.241Z,34.74
2022-12-08T06:26:54.318Z,34.74
2022-12-08T06:27:24.411Z,34.72